sensor_id;sensor_type;location;lat;lon;timestamp;pressure;altitude;pressure_sealevel;temperature;humidity
63554;BME280;49699;48.072;7.800;2022-11-12T00:01:56;101021.38;;;5.59;93.55
63554;BME280;49699;48.072;7.800;2022-11-12T00:04:40;101022.25;;;5.57;93.58
63554;BME280;49699;48.072;7.800;2022-11-12T00:07:24;101019.72;;;5.54;93.72
63554;BME280;49699;48.072;7.800;2022-11-12T00:10:08;101024.06;;;5.52;93.87
63554;BME280;49699;48.072;7.800;2022-11-12T00:12:52;101018.06;;;5.50;93.81
63554;BME280;49699;48.072;7.800;2022-11-12T00:15:36;101024.09;;;5.47;93.80
63554;BME280;49699;48.072;7.800;2022-11-12T00:18:20;101022.41;;;5.45;93.90
63554;BME280;49699;48.072;7.800;2022-11-12T00:21:04;101013.84;;;5.41;93.94
63554;BME280;49699;48.072;7.800;2022-11-12T00:23:48;101025.91;;;5.39;93.84
63554;BME280;49699;48.072;7.800;2022-11-12T00:26:32;101015.66;;;5.35;93.70
63554;BME280;49699;48.072;7.800;2022-11-12T00:29:16;101020.00;;;5.28;93.83
63554;BME280;49699;48.072;7.800;2022-11-12T00:32:00;101028.66;;;5.24;93.69
63554;BME280;49699;48.072;7.800;2022-11-12T00:34:44;101023.56;;;5.18;93.71
63554;BME280;49699;48.072;7.800;2022-11-12T00:37:28;101015.84;;;5.15;94.19
63554;BME280;49699;48.072;7.800;2022-11-12T00:40:12;101019.28;;;5.15;94.29
63554;BME280;49699;48.072;7.800;2022-11-12T00:42:56;101013.25;;;5.16;94.05
63554;BME280;49699;48.072;7.800;2022-11-12T00:45:41;101023.63;;;5.13;93.70
63554;BME280;49699;48.072;7.800;2022-11-12T00:48:25;101027.06;;;5.11;94.15
63554;BME280;49699;48.072;7.800;2022-11-12T00:51:09;101028.81;;;5.09;94.04
63554;BME280;49699;48.072;7.800;2022-11-12T00:53:53;101031.41;;;5.06;93.90
63554;BME280;49699;48.072;7.800;2022-11-12T00:56:37;101032.28;;;5.05;93.90
63554;BME280;49699;48.072;7.800;2022-11-12T00:59:21;101034.00;;;5.06;93.80
63554;BME280;49699;48.072;7.800;2022-11-12T01:02:05;101037.47;;;5.03;93.82
63554;BME280;49699;48.072;7.800;2022-11-12T01:04:49;101032.34;;;5.00;94.00
63554;BME280;49699;48.072;7.800;2022-11-12T01:07:33;101022.94;;;4.96;93.67
63554;BME280;49699;48.072;7.800;2022-11-12T01:10:17;101040.13;;;4.96;93.88
63554;BME280;49699;48.072;7.800;2022-11-12T01:13:01;101037.56;;;4.94;93.69
63554;BME280;49699;48.072;7.800;2022-11-12T01:15:45;101036.69;;;4.95;93.98
63554;BME280;49699;48.072;7.800;2022-11-12T01:18:29;101043.56;;;4.96;93.52
63554;BME280;49699;48.072;7.800;2022-11-12T01:21:13;101038.44;;;4.90;93.75
63554;BME280;49699;48.072;7.800;2022-11-12T01:23:58;101036.75;;;4.86;93.65
63554;BME280;49699;48.072;7.800;2022-11-12T01:26:42;101035.97;;;4.81;93.62
63554;BME280;49699;48.072;7.800;2022-11-12T01:29:26;101036.84;;;4.77;93.25
63554;BME280;49699;48.072;7.800;2022-11-12T01:32:10;101032.56;;;4.76;93.47
63554;BME280;49699;48.072;7.800;2022-11-12T01:34:54;101036.03;;;4.72;93.25
63554;BME280;49699;48.072;7.800;2022-11-12T01:37:38;101025.72;;;4.72;93.87
63554;BME280;49699;48.072;7.800;2022-11-12T01:40:22;101030.00;;;4.71;93.74
63554;BME280;49699;48.072;7.800;2022-11-12T01:43:14;101028.31;;;4.67;93.35
63554;BME280;49699;48.072;7.800;2022-11-12T01:45:58;101025.78;;;4.64;93.75
63554;BME280;49699;48.072;7.800;2022-11-12T01:48:49;101012.91;;;4.63;94.07
63554;BME280;49699;48.072;7.800;2022-11-12T01:51:36;101014.63;;;4.65;94.06
63554;BME280;49699;48.072;7.800;2022-11-12T01:54:21;101024.03;;;4.68;93.55
63554;BME280;49699;48.072;7.800;2022-11-12T01:57:06;101013.69;;;4.69;93.49
63554;BME280;49699;48.072;7.800;2022-11-12T01:59:52;101005.97;;;4.68;93.47
63554;BME280;49699;48.072;7.800;2022-11-12T02:02:37;101005.09;;;4.69;93.36
63554;BME280;49699;48.072;7.800;2022-11-12T02:05:21;101015.41;;;4.72;93.58
63554;BME280;49699;48.072;7.800;2022-11-12T02:08:05;101011.09;;;4.74;93.36
63554;BME280;49699;48.072;7.800;2022-11-12T02:10:50;101011.13;;;4.69;93.45
63554;BME280;49699;48.072;7.800;2022-11-12T02:13:34;101008.59;;;4.65;93.30
63554;BME280;49699;48.072;7.800;2022-11-12T02:16:38;101013.78;;;4.60;93.53
63554;BME280;49699;48.072;7.800;2022-11-12T02:19:22;101013.81;;;4.57;93.54
63554;BME280;49699;48.072;7.800;2022-11-12T02:22:06;101006.09;;;4.54;93.31
63554;BME280;49699;48.072;7.800;2022-11-12T02:24:50;101006.97;;;4.48;93.31
63554;BME280;49699;48.072;7.800;2022-11-12T02:27:34;101007.06;;;4.41;93.06
63554;BME280;49699;48.072;7.800;2022-11-12T02:30:18;101013.97;;;4.34;93.53
63554;BME280;49699;48.072;7.800;2022-11-12T02:33:02;101012.31;;;4.29;93.73
63554;BME280;49699;48.072;7.800;2022-11-12T02:35:46;101018.34;;;4.25;93.24
63554;BME280;49699;48.072;7.800;2022-11-12T02:38:30;101016.63;;;4.22;93.32
63554;BME280;49699;48.072;7.800;2022-11-12T02:41:14;101007.22;;;4.18;93.38
63554;BME280;49699;48.072;7.800;2022-11-12T02:43:58;101006.34;;;4.19;93.83
63554;BME280;49699;48.072;7.800;2022-11-12T02:46:41;101013.22;;;4.17;93.73
63554;BME280;49699;48.072;7.800;2022-11-12T02:49:25;101014.94;;;4.16;93.83
63554;BME280;49699;48.072;7.800;2022-11-12T02:52:10;101003.81;;;4.13;93.60
63554;BME280;49699;48.072;7.800;2022-11-12T02:54:54;100996.13;;;4.10;93.56
63554;BME280;49699;48.072;7.800;2022-11-12T02:57:38;100996.13;;;4.07;93.72
63554;BME280;49699;48.072;7.800;2022-11-12T03:00:22;101001.28;;;4.05;93.78
63554;BME280;49699;48.072;7.800;2022-11-12T03:03:06;100997.00;;;4.06;94.07
63554;BME280;49699;48.072;7.800;2022-11-12T03:05:54;100993.56;;;4.05;93.62
63554;BME280;49699;48.072;7.800;2022-11-12T03:08:38;100991.84;;;4.04;93.97
63554;BME280;49699;48.072;7.800;2022-11-12T03:11:22;100992.69;;;4.05;94.01
63554;BME280;49699;48.072;7.800;2022-11-12T03:14:06;100995.28;;;4.06;93.55
63554;BME280;49699;48.072;7.800;2022-11-12T03:16:50;100996.13;;;4.08;93.74
63554;BME280;49699;48.072;7.800;2022-11-12T03:19:34;100996.97;;;4.12;93.53
63554;BME280;49699;48.072;7.800;2022-11-12T03:22:18;100996.06;;;4.16;93.57
63554;BME280;49699;48.072;7.800;2022-11-12T03:25:02;100993.53;;;4.11;93.41
63554;BME280;49699;48.072;7.800;2022-11-12T03:27:46;100995.25;;;4.09;93.68
63554;BME280;49699;48.072;7.800;2022-11-12T03:30:31;100990.97;;;4.10;93.50
63554;BME280;49699;48.072;7.800;2022-11-12T03:33:15;100983.22;;;4.10;93.64
63554;BME280;49699;48.072;7.800;2022-11-12T03:35:59;100987.53;;;4.11;93.47
63554;BME280;49699;48.072;7.800;2022-11-12T03:38:44;100980.66;;;4.11;93.55
63554;BME280;49699;48.072;7.800;2022-11-12T03:41:28;100989.25;;;4.10;93.60
63554;BME280;49699;48.072;7.800;2022-11-12T03:44:12;100987.47;;;4.14;93.14
63554;BME280;49699;48.072;7.800;2022-11-12T03:46:56;100983.19;;;4.14;93.48
63554;BME280;49699;48.072;7.800;2022-11-12T03:49:40;100980.66;;;4.11;93.00
63554;BME280;49699;48.072;7.800;2022-11-12T03:52:24;100978.03;;;4.13;93.12
63554;BME280;49699;48.072;7.800;2022-11-12T03:55:08;100972.00;;;4.14;93.12
63554;BME280;49699;48.072;7.800;2022-11-12T03:57:52;100973.72;;;4.15;93.38
63554;BME280;49699;48.072;7.800;2022-11-12T04:00:36;100971.16;;;4.16;93.39
63554;BME280;49699;48.072;7.800;2022-11-12T04:03:20;100978.88;;;4.18;93.21
63554;BME280;49699;48.072;7.800;2022-11-12T04:06:04;100980.56;;;4.21;93.44
63554;BME280;49699;48.072;7.800;2022-11-12T04:09:08;100972.81;;;4.22;93.08
63554;BME280;49699;48.072;7.800;2022-11-12T04:11:52;100978.84;;;4.23;93.08
63554;BME280;49699;48.072;7.800;2022-11-12T04:14:36;100976.25;;;4.23;92.82
63554;BME280;49699;48.072;7.800;2022-11-12T04:17:20;100978.00;;;4.19;92.94
63554;BME280;49699;48.072;7.800;2022-11-12T04:20:23;100975.44;;;4.19;93.03
63554;BME280;49699;48.072;7.800;2022-11-12T04:23:25;100972.00;;;4.14;93.02
63554;BME280;49699;48.072;7.800;2022-11-12T04:26:09;100971.19;;;4.12;92.98
63554;BME280;49699;48.072;7.800;2022-11-12T04:29:06;100971.22;;;4.07;92.88
63554;BME280;49699;48.072;7.800;2022-11-12T04:32:09;100971.25;;;4.04;92.95
63554;BME280;49699;48.072;7.800;2022-11-12T04:34:53;100971.22;;;4.07;93.01
63554;BME280;49699;48.072;7.800;2022-11-12T04:37:37;100965.19;;;4.10;92.88
63554;BME280;49699;48.072;7.800;2022-11-12T04:40:27;100966.94;;;4.06;92.87
63554;BME280;49699;48.072;7.800;2022-11-12T04:43:30;100963.50;;;4.06;92.97
63554;BME280;49699;48.072;7.800;2022-11-12T04:46:33;100976.38;;;4.07;93.16
63554;BME280;49699;48.072;7.800;2022-11-12T04:49:17;100981.53;;;4.06;93.04
63554;BME280;49699;48.072;7.800;2022-11-12T04:52:01;100981.53;;;4.06;93.33
63554;BME280;49699;48.072;7.800;2022-11-12T04:54:48;100979.81;;;4.03;93.23
63554;BME280;49699;48.072;7.800;2022-11-12T04:57:32;100975.56;;;3.98;93.23
63554;BME280;49699;48.072;7.800;2022-11-12T05:00:16;100982.44;;;3.96;93.04
63554;BME280;49699;48.072;7.800;2022-11-12T05:03:00;100973.91;;;3.94;92.84
63554;BME280;49699;48.072;7.800;2022-11-12T05:05:44;100973.00;;;3.95;93.08
63554;BME280;49699;48.072;7.800;2022-11-12T05:08:28;100978.16;;;3.96;93.08
63554;BME280;49699;48.072;7.800;2022-11-12T05:11:12;100977.28;;;3.94;93.05
63554;BME280;49699;48.072;7.800;2022-11-12T05:13:56;100969.63;;;3.90;92.84
63554;BME280;49699;48.072;7.800;2022-11-12T05:16:40;100974.78;;;3.88;92.77
63554;BME280;49699;48.072;7.800;2022-11-12T05:19:24;100964.50;;;3.82;92.63
63554;BME280;49699;48.072;7.800;2022-11-12T05:22:11;100970.53;;;3.76;93.03
63554;BME280;49699;48.072;7.800;2022-11-12T05:24:55;100970.56;;;3.73;93.19
63554;BME280;49699;48.072;7.800;2022-11-12T05:27:39;100978.31;;;3.72;93.22
63554;BME280;49699;48.072;7.800;2022-11-12T05:30:23;100979.16;;;3.71;92.89
63554;BME280;49699;48.072;7.800;2022-11-12T05:33:07;100974.03;;;3.69;93.23
63554;BME280;49699;48.072;7.800;2022-11-12T05:35:51;100977.44;;;3.70;93.14
63554;BME280;49699;48.072;7.800;2022-11-12T05:38:35;100979.16;;;3.69;92.94
63554;BME280;49699;48.072;7.800;2022-11-12T05:41:21;100971.44;;;3.68;92.95
63554;BME280;49699;48.072;7.800;2022-11-12T05:44:05;100969.72;;;3.68;93.06
63554;BME280;49699;48.072;7.800;2022-11-12T05:46:49;100993.75;;;3.70;92.73
63554;BME280;49699;48.072;7.800;2022-11-12T05:49:33;100984.31;;;3.75;93.19
63554;BME280;49699;48.072;7.800;2022-11-12T05:52:17;100996.28;;;3.79;92.95
63554;BME280;49699;48.072;7.800;2022-11-12T05:55:01;100989.41;;;3.81;92.82
63554;BME280;49699;48.072;7.800;2022-11-12T05:57:45;100993.69;;;3.84;92.55
63554;BME280;49699;48.072;7.800;2022-11-12T06:00:29;100992.81;;;3.87;92.76
63554;BME280;49699;48.072;7.800;2022-11-12T06:03:13;100980.78;;;3.92;92.47
63554;BME280;49699;48.072;7.800;2022-11-12T06:05:57;100977.28;;;3.96;92.78
63554;BME280;49699;48.072;7.800;2022-11-12T06:08:41;100980.72;;;3.98;92.76
63554;BME280;49699;48.072;7.800;2022-11-12T06:11:25;100981.56;;;3.98;92.66
63554;BME280;49699;48.072;7.800;2022-11-12T06:14:09;100977.28;;;3.97;92.76
63554;BME280;49699;48.072;7.800;2022-11-12T06:16:53;100973.00;;;3.96;92.79
63554;BME280;49699;48.072;7.800;2022-11-12T06:19:37;100971.28;;;3.97;92.87
63554;BME280;49699;48.072;7.800;2022-11-12T06:22:21;100976.44;;;3.95;92.69
63554;BME280;49699;48.072;7.800;2022-11-12T06:25:05;100977.34;;;3.90;93.09
63554;BME280;49699;48.072;7.800;2022-11-12T06:27:49;100981.63;;;3.91;92.73
63554;BME280;49699;48.072;7.800;2022-11-12T06:30:33;100979.91;;;3.90;92.66
63554;BME280;49699;48.072;7.800;2022-11-12T06:33:17;100990.22;;;3.88;93.13
63554;BME280;49699;48.072;7.800;2022-11-12T06:36:03;100983.34;;;3.92;93.03
63554;BME280;49699;48.072;7.800;2022-11-12T06:38:47;100991.88;;;3.95;92.95
63554;BME280;49699;48.072;7.800;2022-11-12T06:41:31;100991.88;;;3.97;93.00
63554;BME280;49699;48.072;7.800;2022-11-12T06:44:15;100997.03;;;3.98;93.25
63554;BME280;49699;48.072;7.800;2022-11-12T06:47:00;100999.59;;;4.00;92.69
63554;BME280;49699;48.072;7.800;2022-11-12T06:49:44;101001.31;;;4.01;92.87
63554;BME280;49699;48.072;7.800;2022-11-12T06:52:28;101003.03;;;3.97;92.67
63554;BME280;49699;48.072;7.800;2022-11-12T06:55:12;101000.47;;;3.96;93.01
63554;BME280;49699;48.072;7.800;2022-11-12T06:57:56;101003.03;;;3.96;92.72
63554;BME280;49699;48.072;7.800;2022-11-12T07:00:40;101004.75;;;3.97;92.92
63554;BME280;49699;48.072;7.800;2022-11-12T07:03:24;101005.59;;;3.99;93.13
63554;BME280;49699;48.072;7.800;2022-11-12T07:06:10;101003.88;;;4.01;93.00
63554;BME280;49699;48.072;7.800;2022-11-12T07:08:54;101007.31;;;4.06;92.97
63554;BME280;49699;48.072;7.800;2022-11-12T07:11:38;100994.41;;;4.07;93.13
63554;BME280;49699;48.072;7.800;2022-11-12T07:14:22;100994.41;;;4.10;92.75
63554;BME280;49699;48.072;7.800;2022-11-12T07:17:06;100997.78;;;4.12;92.82
63554;BME280;49699;48.072;7.800;2022-11-12T07:19:50;100996.97;;;4.12;92.79
63554;BME280;49699;48.072;7.800;2022-11-12T07:22:34;101004.66;;;4.15;92.64
63554;BME280;49699;48.072;7.800;2022-11-12T07:25:18;101004.66;;;4.13;92.81
63554;BME280;49699;48.072;7.800;2022-11-12T07:28:02;101005.53;;;4.12;92.84
63554;BME280;49699;48.072;7.800;2022-11-12T07:30:46;101005.50;;;4.14;92.54
63554;BME280;49699;48.072;7.800;2022-11-12T07:33:30;101013.22;;;4.15;92.67
63554;BME280;49699;48.072;7.800;2022-11-12T07:36:15;101013.22;;;4.17;92.67
63554;BME280;49699;48.072;7.800;2022-11-12T07:39:00;101014.06;;;4.19;92.55
63554;BME280;49699;48.072;7.800;2022-11-12T07:41:44;101019.19;;;4.25;92.74
63554;BME280;49699;48.072;7.800;2022-11-12T07:44:28;101022.56;;;4.33;92.56
63554;BME280;49699;48.072;7.800;2022-11-12T07:47:12;101022.53;;;4.41;92.39
63554;BME280;49699;48.072;7.800;2022-11-12T07:49:56;101031.09;;;4.47;92.34
63554;BME280;49699;48.072;7.800;2022-11-12T07:52:39;101025.84;;;4.53;92.31
63554;BME280;49699;48.072;7.800;2022-11-12T07:55:23;101030.97;;;4.61;92.22
63554;BME280;49699;48.072;7.800;2022-11-12T07:58:07;101036.06;;;4.67;91.62
63554;BME280;49699;48.072;7.800;2022-11-12T08:00:52;101041.16;;;4.75;91.79
63554;BME280;49699;48.072;7.800;2022-11-12T08:03:36;101053.16;;;4.80;91.43
63554;BME280;49699;48.072;7.800;2022-11-12T08:06:20;101047.13;;;4.83;91.63
63554;BME280;49699;48.072;7.800;2022-11-12T08:09:05;101037.63;;;4.85;91.61
63554;BME280;49699;48.072;7.800;2022-11-12T08:11:49;101038.47;;;4.88;91.73
63554;BME280;49699;48.072;7.800;2022-11-12T08:14:33;101034.97;;;4.96;91.74
63554;BME280;49699;48.072;7.800;2022-11-12T08:17:17;101039.22;;;5.01;91.56
63554;BME280;49699;48.072;7.800;2022-11-12T08:20:01;101040.00;;;5.06;91.45
63554;BME280;49699;48.072;7.800;2022-11-12T08:22:45;101036.53;;;5.12;91.52
63554;BME280;49699;48.072;7.800;2022-11-12T08:25:29;101037.38;;;5.15;91.27
63554;BME280;49699;48.072;7.800;2022-11-12T08:28:13;101042.44;;;5.21;91.36
63554;BME280;49699;48.072;7.800;2022-11-12T08:31:01;101050.16;;;5.26;90.98
63554;BME280;49699;48.072;7.800;2022-11-12T08:33:46;101055.28;;;5.29;91.12
63554;BME280;49699;48.072;7.800;2022-11-12T08:36:30;101056.13;;;5.31;91.15
63554;BME280;49699;48.072;7.800;2022-11-12T08:39:14;101054.38;;;5.35;91.15
63554;BME280;49699;48.072;7.800;2022-11-12T08:41:58;101057.75;;;5.40;91.26
63554;BME280;49699;48.072;7.800;2022-11-12T08:44:42;101061.16;;;5.43;91.21
63554;BME280;49699;48.072;7.800;2022-11-12T08:47:26;101055.94;;;5.48;91.19
63554;BME280;49699;48.072;7.800;2022-11-12T08:50:10;101057.63;;;5.50;91.40
63554;BME280;49699;48.072;7.800;2022-11-12T08:53:28;101057.59;;;5.55;91.19
63554;BME280;49699;48.072;7.800;2022-11-12T08:56:04;101054.94;;;5.61;91.30
63554;BME280;49699;48.072;7.800;2022-11-12T08:58:48;101050.56;;;5.66;91.09
63554;BME280;49699;48.072;7.800;2022-11-12T09:01:32;101059.13;;;5.73;91.09
63554;BME280;49699;48.072;7.800;2022-11-12T09:04:16;101057.34;;;5.73;90.99
63554;BME280;49699;48.072;7.800;2022-11-12T09:07:01;101049.56;;;5.76;90.89
63554;BME280;49699;48.072;7.800;2022-11-12T09:09:44;101050.41;;;5.78;90.94
63554;BME280;49699;48.072;7.800;2022-11-12T09:12:28;101048.69;;;5.77;91.26
63554;BME280;49699;48.072;7.800;2022-11-12T09:15:12;101047.81;;;5.78;91.24
63554;BME280;49699;48.072;7.800;2022-11-12T09:18:01;101043.50;;;5.80;91.54
63554;BME280;49699;48.072;7.800;2022-11-12T09:20:45;101037.44;;;5.83;91.42
63554;BME280;49699;48.072;7.800;2022-11-12T09:23:29;101042.56;;;5.86;91.33
63554;BME280;49699;48.072;7.800;2022-11-12T09:26:13;101043.44;;;5.89;91.53
63554;BME280;49699;48.072;7.800;2022-11-12T09:28:57;101037.28;;;5.97;91.63
63554;BME280;49699;48.072;7.800;2022-11-12T09:31:42;101044.94;;;6.04;91.27
63554;BME280;49699;48.072;7.800;2022-11-12T09:34:26;101050.88;;;6.09;91.23
63554;BME280;49699;48.072;7.800;2022-11-12T09:37:10;101049.09;;;6.14;90.95
63554;BME280;49699;48.072;7.800;2022-11-12T09:39:53;101051.66;;;6.17;91.03
63554;BME280;49699;48.072;7.800;2022-11-12T09:42:37;101045.56;;;6.21;91.02
63554;BME280;49699;48.072;7.800;2022-11-12T09:45:26;101050.63;;;6.29;90.95
63554;BME280;49699;48.072;7.800;2022-11-12T09:48:14;101060.00;;;6.38;90.83
63554;BME280;49699;48.072;7.800;2022-11-12T09:51:01;101053.88;;;6.43;90.68
63554;BME280;49699;48.072;7.800;2022-11-12T09:53:49;101051.19;;;6.49;90.81
63554;BME280;49699;48.072;7.800;2022-11-12T09:56:36;101053.69;;;6.55;90.58
63554;BME280;49699;48.072;7.800;2022-11-12T09:59:21;101054.47;;;6.60;90.29
63554;BME280;49699;48.072;7.800;2022-11-12T10:02:14;101050.09;;;6.64;90.17
63554;BME280;49699;48.072;7.800;2022-11-12T10:05:09;101043.19;;;6.63;90.34
63554;BME280;49699;48.072;7.800;2022-11-12T10:10:45;101030.31;;;6.61;90.60
63554;BME280;49699;48.072;7.800;2022-11-12T10:13:37;101033.63;;;6.68;90.50
63554;BME280;49699;48.072;7.800;2022-11-12T10:16:37;101031.03;;;6.70;90.28
63554;BME280;49699;48.072;7.800;2022-11-12T10:19:40;101028.44;;;6.70;90.33
63554;BME280;49699;48.072;7.800;2022-11-12T10:25:32;101019.78;;;6.72;90.25
63554;BME280;49699;48.072;7.800;2022-11-12T10:31:32;101009.44;;;6.72;90.45
63554;BME280;49699;48.072;7.800;2022-11-12T10:34:17;101013.75;;;6.72;90.66
63554;BME280;49699;48.072;7.800;2022-11-12T10:37:03;101011.09;;;6.76;90.44
63554;BME280;49699;48.072;7.800;2022-11-12T10:39:48;101002.44;;;6.77;90.02
63554;BME280;49699;48.072;7.800;2022-11-12T10:42:32;101005.00;;;6.79;90.53
63554;BME280;49699;48.072;7.800;2022-11-12T10:45:20;101008.34;;;6.85;90.06
63554;BME280;49699;48.072;7.800;2022-11-12T10:48:04;101009.13;;;6.90;90.06
63554;BME280;49699;48.072;7.800;2022-11-12T10:50:48;101002.16;;;6.94;89.88
63554;BME280;49699;48.072;7.800;2022-11-12T10:56:26;101001.16;;;7.01;89.46
63554;BME280;49699;48.072;7.800;2022-11-12T10:59:18;100997.69;;;7.02;89.32
63554;BME280;49699;48.072;7.800;2022-11-12T11:02:02;100984.72;;;7.04;89.24
63554;BME280;49699;48.072;7.800;2022-11-12T11:04:46;100985.50;;;7.07;89.61
63554;BME280;49699;48.072;7.800;2022-11-12T11:07:30;100982.00;;;7.11;89.09
63554;BME280;49699;48.072;7.800;2022-11-12T11:10:21;100971.56;;;7.16;88.97
63554;BME280;49699;48.072;7.800;2022-11-12T11:13:19;100969.63;;;7.25;88.84
63554;BME280;49699;48.072;7.800;2022-11-12T11:16:04;100961.63;;;7.36;88.29
63554;BME280;49699;48.072;7.800;2022-11-12T11:18:50;100968.41;;;7.43;88.38
63554;BME280;49699;48.072;7.800;2022-11-12T11:24:53;100945.69;;;7.56;87.49
63554;BME280;49699;48.072;7.800;2022-11-12T11:27:44;100948.16;;;7.62;87.18
63554;BME280;49699;48.072;7.800;2022-11-12T11:30:32;100945.59;;;7.60;87.00
63554;BME280;49699;48.072;7.800;2022-11-12T11:33:31;100940.56;;;7.53;87.18
63554;BME280;49699;48.072;7.800;2022-11-12T11:36:23;100932.91;;;7.48;87.53
63554;BME280;49699;48.072;7.800;2022-11-12T11:45:08;100922.47;;;7.51;87.93
63554;BME280;49699;48.072;7.800;2022-11-12T11:47:58;100918.91;;;7.55;87.96
63554;BME280;49699;48.072;7.800;2022-11-12T11:50:55;100913.72;;;7.57;87.88
63554;BME280;49699;48.072;7.800;2022-11-12T11:56:32;100905.06;;;7.56;87.60
63554;BME280;49699;48.072;7.800;2022-11-12T11:59:43;100891.22;;;7.59;87.56
63554;BME280;49699;48.072;7.800;2022-11-12T12:02:33;100905.91;;;7.58;87.83
63554;BME280;49699;48.072;7.800;2022-11-12T12:08:10;100900.94;;;7.49;88.01
63554;BME280;49699;48.072;7.800;2022-11-12T12:11:07;100900.16;;;7.46;88.17
63554;BME280;49699;48.072;7.800;2022-11-12T12:13:59;100895.03;;;7.43;88.25
63554;BME280;49699;48.072;7.800;2022-11-12T12:19:55;100883.00;;;7.39;88.45
63554;BME280;49699;48.072;7.800;2022-11-12T12:22:49;100884.94;;;7.30;89.17
63554;BME280;49699;48.072;7.800;2022-11-12T12:25:36;100890.16;;;7.29;88.81
63554;BME280;49699;48.072;7.800;2022-11-12T12:28:40;100891.81;;;7.31;89.15
63554;BME280;49699;48.072;7.800;2022-11-12T12:31:28;100881.47;;;7.31;89.31
63554;BME280;49699;48.072;7.800;2022-11-12T12:37:01;100878.03;;;7.29;89.18
63554;BME280;49699;48.072;7.800;2022-11-12T12:39:51;100879.78;;;7.29;89.56
63554;BME280;49699;48.072;7.800;2022-11-12T12:42:52;100884.16;;;7.25;89.38
63554;BME280;49699;48.072;7.800;2022-11-12T12:45:41;100876.31;;;7.30;89.21
63554;BME280;49699;48.072;7.800;2022-11-12T12:48:33;100874.53;;;7.32;89.49
63554;BME280;49699;48.072;7.800;2022-11-12T12:51:17;100861.56;;;7.34;89.59
63554;BME280;49699;48.072;7.800;2022-11-12T12:54:01;100865.78;;;7.38;89.23
63554;BME280;49699;48.072;7.800;2022-11-12T12:56:46;100870.88;;;7.41;89.32
63554;BME280;49699;48.072;7.800;2022-11-12T12:59:30;100867.34;;;7.45;89.12
63554;BME280;49699;48.072;7.800;2022-11-12T13:02:18;100857.78;;;7.48;88.79
63554;BME280;49699;48.072;7.800;2022-11-12T13:05:03;100857.75;;;7.50;88.92
63554;BME280;49699;48.072;7.800;2022-11-12T13:07:48;100849.06;;;7.52;88.87
63554;BME280;49699;48.072;7.800;2022-11-12T13:16:03;100852.31;;;7.60;88.78
63554;BME280;49699;48.072;7.800;2022-11-12T13:21:34;100848.88;;;7.60;88.93
63554;BME280;49699;48.072;7.800;2022-11-12T13:24:21;100839.31;;;7.62;88.88
63554;BME280;49699;48.072;7.800;2022-11-12T13:33:17;100854.13;;;7.57;89.05
63554;BME280;49699;48.072;7.800;2022-11-12T13:36:16;100851.53;;;7.57;89.31
63554;BME280;49699;48.072;7.800;2022-11-12T13:39:09;100857.59;;;7.56;89.57
63554;BME280;49699;48.072;7.800;2022-11-12T13:41:58;100847.22;;;7.56;89.45
63554;BME280;49699;48.072;7.800;2022-11-12T13:45:01;100850.63;;;7.58;89.58
63554;BME280;49699;48.072;7.800;2022-11-12T13:47:45;100844.53;;;7.60;89.62
63554;BME280;49699;48.072;7.800;2022-11-12T13:50:29;100841.94;;;7.60;89.53
63554;BME280;49699;48.072;7.800;2022-11-12T13:53:15;100832.53;;;7.56;89.50
63554;BME280;49699;48.072;7.800;2022-11-12T13:56:01;100831.03;;;7.48;89.74
63554;BME280;49699;48.072;7.800;2022-11-12T13:58:45;100837.88;;;7.50;89.68
63554;BME280;49699;48.072;7.800;2022-11-12T14:01:29;100829.97;;;7.55;90.04
63554;BME280;49699;48.072;7.800;2022-11-12T14:04:21;100832.56;;;7.55;90.04
63554;BME280;49699;48.072;7.800;2022-11-12T14:21:35;100820.63;;;7.49;90.62
63554;BME280;49699;48.072;7.800;2022-11-12T14:24:18;100828.34;;;7.52;90.43
63554;BME280;49699;48.072;7.800;2022-11-12T14:27:02;100828.28;;;7.54;90.54
63554;BME280;49699;48.072;7.800;2022-11-12T14:29:46;100825.75;;;7.52;90.40
63554;BME280;49699;48.072;7.800;2022-11-12T14:32:34;100826.63;;;7.51;90.56
63554;BME280;49699;48.072;7.800;2022-11-12T14:35:29;100829.16;;;7.53;90.61
63554;BME280;49699;48.072;7.800;2022-11-12T14:38:14;100823.97;;;7.53;90.58
63554;BME280;49699;48.072;7.800;2022-11-12T14:41:02;100817.19;;;7.49;90.46
63554;BME280;49699;48.072;7.800;2022-11-12T14:43:51;100819.78;;;7.49;90.77
63554;BME280;49699;48.072;7.800;2022-11-12T14:46:37;100814.59;;;7.49;90.84
63554;BME280;49699;48.072;7.800;2022-11-12T14:52:18;100809.56;;;7.41;91.12
63554;BME280;49699;48.072;7.800;2022-11-12T14:55:05;100807.88;;;7.40;91.05
63554;BME280;49699;48.072;7.800;2022-11-12T14:57:50;100801.91;;;7.37;91.01
63554;BME280;49699;48.072;7.800;2022-11-12T15:03:22;100791.72;;;7.30;91.16
63554;BME280;49699;48.072;7.800;2022-11-12T15:06:10;100791.66;;;7.32;91.57
63554;BME280;49699;48.072;7.800;2022-11-12T15:08:55;100786.47;;;7.34;91.27
63554;BME280;49699;48.072;7.800;2022-11-12T15:11:44;100782.06;;;7.36;91.45
63554;BME280;49699;48.072;7.800;2022-11-12T15:14:30;100779.44;;;7.37;91.50
63554;BME280;49699;48.072;7.800;2022-11-12T15:17:30;100778.53;;;7.40;91.22
63554;BME280;49699;48.072;7.800;2022-11-12T15:20:17;100773.34;;;7.40;91.13
63554;BME280;49699;48.072;7.800;2022-11-12T15:23:01;100769.97;;;7.36;91.31
63554;BME280;49699;48.072;7.800;2022-11-12T15:25:45;100763.16;;;7.34;91.13
63554;BME280;49699;48.072;7.800;2022-11-12T15:28:39;100756.31;;;7.31;91.32
63554;BME280;49699;48.072;7.800;2022-11-12T15:31:23;100761.44;;;7.32;91.69
63554;BME280;49699;48.072;7.800;2022-11-12T15:37:12;100756.28;;;7.32;91.71
63554;BME280;49699;48.072;7.800;2022-11-12T15:40:04;100761.41;;;7.34;91.68
63554;BME280;49699;48.072;7.800;2022-11-12T15:42:49;100746.69;;;7.35;91.58
63554;BME280;49699;48.072;7.800;2022-11-12T15:45:33;100758.00;;;7.32;91.50
63554;BME280;49699;48.072;7.800;2022-11-12T15:48:17;100753.72;;;7.31;91.78
63554;BME280;49699;48.072;7.800;2022-11-12T15:51:01;100747.72;;;7.29;91.80